sensor_id;sensor_type;location;lat;lon;timestamp;temperature;humidity
46336;DHT22;31365;48.858;8.530;2023-04-03T00:01:38;4.90;99.90
46336;DHT22;31365;48.858;8.530;2023-04-03T00:04:07;4.90;99.90
46336;DHT22;31365;48.858;8.530;2023-04-03T00:06:36;5.00;99.90
46336;DHT22;31365;48.858;8.530;2023-04-03T00:09:05;5.00;99.90
46336;DHT22;31365;48.858;8.530;2023-04-03T00:11:36;5.00;99.90
46336;DHT22;31365;48.858;8.530;2023-04-03T00:14:07;5.00;99.90
46336;DHT22;31365;48.858;8.530;2023-04-03T00:16:37;5.00;99.90
46336;DHT22;31365;48.858;8.530;2023-04-03T00:29:16;4.90;99.90
46336;DHT22;31365;48.858;8.530;2023-04-03T02:18:04;4.20;99.90
46336;DHT22;31365;48.858;8.530;2023-04-03T02:20:33;4.20;99.90
46336;DHT22;31365;48.858;8.530;2023-04-03T02:23:05;4.20;99.90
46336;DHT22;31365;48.858;8.530;2023-04-03T02:25:34;4.20;99.90
46336;DHT22;31365;48.858;8.530;2023-04-03T02:28:05;4.10;99.90
46336;DHT22;31365;48.858;8.530;2023-04-03T02:30:34;4.10;99.90
46336;DHT22;31365;48.858;8.530;2023-04-03T02:33:06;4.10;99.90
46336;DHT22;31365;48.858;8.530;2023-04-03T02:35:35;4.10;99.90
46336;DHT22;31365;48.858;8.530;2023-04-03T02:38:04;4.10;99.90
46336;DHT22;31365;48.858;8.530;2023-04-03T02:40:33;4.00;99.90
46336;DHT22;31365;48.858;8.530;2023-04-03T02:43:02;4.00;99.90
46336;DHT22;31365;48.858;8.530;2023-04-03T02:45:32;4.00;99.90
46336;DHT22;31365;48.858;8.530;2023-04-03T02:48:01;3.90;99.90
46336;DHT22;31365;48.858;8.530;2023-04-03T02:50:31;3.90;99.90
46336;DHT22;31365;48.858;8.530;2023-04-03T02:53:01;3.90;99.90
46336;DHT22;31365;48.858;8.530;2023-04-03T02:55:30;3.80;99.90
46336;DHT22;31365;48.858;8.530;2023-04-03T02:57:59;3.80;99.90
46336;DHT22;31365;48.858;8.530;2023-04-03T03:00:28;3.80;99.90
46336;DHT22;31365;48.858;8.530;2023-04-03T03:02:56;3.70;99.90
46336;DHT22;31365;48.858;8.530;2023-04-03T03:05:26;3.70;99.90
46336;DHT22;31365;48.858;8.530;2023-04-03T03:07:56;3.60;99.90
46336;DHT22;31365;48.858;8.530;2023-04-03T03:10:26;3.60;99.90
46336;DHT22;31365;48.858;8.530;2023-04-03T03:12:55;3.60;99.90
46336;DHT22;31365;48.858;8.530;2023-04-03T03:15:24;3.50;99.90
46336;DHT22;31365;48.858;8.530;2023-04-03T03:17:53;3.50;99.90
46336;DHT22;31365;48.858;8.530;2023-04-03T03:20:22;3.50;99.90
46336;DHT22;31365;48.858;8.530;2023-04-03T03:22:52;3.40;99.90
46336;DHT22;31365;48.858;8.530;2023-04-03T03:25:24;3.40;99.90
46336;DHT22;31365;48.858;8.530;2023-04-03T03:27:55;3.40;99.90
46336;DHT22;31365;48.858;8.530;2023-04-03T03:30:25;3.40;99.90
46336;DHT22;31365;48.858;8.530;2023-04-03T03:32:55;3.40;99.90
46336;DHT22;31365;48.858;8.530;2023-04-03T03:35:33;3.30;99.90
46336;DHT22;31365;48.858;8.530;2023-04-03T03:38:05;3.30;99.90
46336;DHT22;31365;48.858;8.530;2023-04-03T03:40:39;3.30;99.90
46336;DHT22;31365;48.858;8.530;2023-04-03T03:43:09;3.30;99.90
46336;DHT22;31365;48.858;8.530;2023-04-03T03:45:38;3.20;99.90
46336;DHT22;31365;48.858;8.530;2023-04-03T03:48:08;3.20;99.90
46336;DHT22;31365;48.858;8.530;2023-04-03T03:50:37;3.20;99.90
46336;DHT22;31365;48.858;8.530;2023-04-03T03:53:07;3.20;99.90
46336;DHT22;31365;48.858;8.530;2023-04-03T03:55:36;3.20;99.90
46336;DHT22;31365;48.858;8.530;2023-04-03T03:58:08;3.20;99.90
46336;DHT22;31365;48.858;8.530;2023-04-03T04:00:37;3.20;99.90
46336;DHT22;31365;48.858;8.530;2023-04-03T04:03:07;3.20;99.90
46336;DHT22;31365;48.858;8.530;2023-04-03T04:05:35;3.10;99.90
46336;DHT22;31365;48.858;8.530;2023-04-03T04:08:06;3.10;99.90
46336;DHT22;31365;48.858;8.530;2023-04-03T04:10:35;3.00;99.90
46336;DHT22;31365;48.858;8.530;2023-04-03T04:13:08;2.90;99.90
46336;DHT22;31365;48.858;8.530;2023-04-03T04:15:38;3.00;99.90
46336;DHT22;31365;48.858;8.530;2023-04-03T04:18:07;2.90;99.90
46336;DHT22;31365;48.858;8.530;2023-04-03T04:20:37;2.90;99.90
46336;DHT22;31365;48.858;8.530;2023-04-03T04:23:05;2.90;99.90
46336;DHT22;31365;48.858;8.530;2023-04-03T04:25:34;2.90;99.90
46336;DHT22;31365;48.858;8.530;2023-04-03T04:28:06;3.00;99.90
46336;DHT22;31365;48.858;8.530;2023-04-03T04:30:37;3.00;99.90
46336;DHT22;31365;48.858;8.530;2023-04-03T04:33:06;3.00;99.90
46336;DHT22;31365;48.858;8.530;2023-04-03T04:35:36;3.10;99.90
46336;DHT22;31365;48.858;8.530;2023-04-03T04:38:05;3.10;99.90
46336;DHT22;31365;48.858;8.530;2023-04-03T04:40:36;3.20;99.90
46336;DHT22;31365;48.858;8.530;2023-04-03T04:43:06;3.20;99.90
46336;DHT22;31365;48.858;8.530;2023-04-03T04:45:38;3.20;99.90
46336;DHT22;31365;48.858;8.530;2023-04-03T04:48:07;3.30;99.90
46336;DHT22;31365;48.858;8.530;2023-04-03T04:50:36;3.30;99.90
46336;DHT22;31365;48.858;8.530;2023-04-03T04:53:05;3.40;99.90
46336;DHT22;31365;48.858;8.530;2023-04-03T04:55:34;3.50;99.90
46336;DHT22;31365;48.858;8.530;2023-04-03T04:58:04;3.50;99.90
46336;DHT22;31365;48.858;8.530;2023-04-03T05:00:34;3.50;99.90
46336;DHT22;31365;48.858;8.530;2023-04-03T05:03:05;3.50;99.90
46336;DHT22;31365;48.858;8.530;2023-04-03T05:05:34;3.60;99.90
46336;DHT22;31365;48.858;8.530;2023-04-03T05:08:06;3.50;99.90
46336;DHT22;31365;48.858;8.530;2023-04-03T05:10:38;3.50;99.90
46336;DHT22;31365;48.858;8.530;2023-04-03T05:13:08;3.50;99.90
46336;DHT22;31365;48.858;8.530;2023-04-03T05:15:39;3.60;99.90
46336;DHT22;31365;48.858;8.530;2023-04-03T05:18:08;3.60;99.90
46336;DHT22;31365;48.858;8.530;2023-04-03T05:20:37;3.70;99.90
46336;DHT22;31365;48.858;8.530;2023-04-03T05:23:06;3.70;99.90
46336;DHT22;31365;48.858;8.530;2023-04-03T05:25:37;3.70;99.90
46336;DHT22;31365;48.858;8.530;2023-04-03T05:28:07;3.70;99.90
46336;DHT22;31365;48.858;8.530;2023-04-03T05:30:38;3.80;99.90
46336;DHT22;31365;48.858;8.530;2023-04-03T05:33:09;3.80;99.90
46336;DHT22;31365;48.858;8.530;2023-04-03T05:35:50;3.90;99.90
46336;DHT22;31365;48.858;8.530;2023-04-03T05:38:24;3.90;99.90
46336;DHT22;31365;48.858;8.530;2023-04-03T05:40:55;3.90;99.90
46336;DHT22;31365;48.858;8.530;2023-04-03T05:43:24;4.00;99.90
46336;DHT22;31365;48.858;8.530;2023-04-03T05:45:55;4.00;99.90
46336;DHT22;31365;48.858;8.530;2023-04-03T05:48:27;4.00;99.90
46336;DHT22;31365;48.858;8.530;2023-04-03T05:50:56;4.00;99.90
46336;DHT22;31365;48.858;8.530;2023-04-03T05:53:28;3.90;99.90
46336;DHT22;31365;48.858;8.530;2023-04-03T05:56:02;3.80;99.90
46336;DHT22;31365;48.858;8.530;2023-04-03T05:58:37;3.80;99.90
46336;DHT22;31365;48.858;8.530;2023-04-03T06:01:09;3.80;99.90
46336;DHT22;31365;48.858;8.530;2023-04-03T06:03:37;3.80;99.90
46336;DHT22;31365;48.858;8.530;2023-04-03T06:06:13;3.80;99.90
46336;DHT22;31365;48.858;8.530;2023-04-03T06:08:43;3.90;99.90
46336;DHT22;31365;48.858;8.530;2023-04-03T06:11:12;4.00;99.90
46336;DHT22;31365;48.858;8.530;2023-04-03T06:13:43;4.10;99.90
46336;DHT22;31365;48.858;8.530;2023-04-03T06:16:15;4.20;99.90
46336;DHT22;31365;48.858;8.530;2023-04-03T06:18:45;4.30;99.90
46336;DHT22;31365;48.858;8.530;2023-04-03T06:21:14;4.40;99.90
46336;DHT22;31365;48.858;8.530;2023-04-03T06:23:43;4.40;99.90
46336;DHT22;31365;48.858;8.530;2023-04-03T06:26:13;4.40;99.90
46336;DHT22;31365;48.858;8.530;2023-04-03T06:28:42;4.50;99.90
46336;DHT22;31365;48.858;8.530;2023-04-03T06:31:14;4.60;99.90
46336;DHT22;31365;48.858;8.530;2023-04-03T06:33:44;4.70;99.90
46336;DHT22;31365;48.858;8.530;2023-04-03T06:36:13;4.70;99.90
46336;DHT22;31365;48.858;8.530;2023-04-03T06:38:47;4.70;99.90
46336;DHT22;31365;48.858;8.530;2023-04-03T06:41:17;4.80;99.90
46336;DHT22;31365;48.858;8.530;2023-04-03T06:43:47;4.70;99.90
46336;DHT22;31365;48.858;8.530;2023-04-03T06:46:19;4.80;99.90
46336;DHT22;31365;48.858;8.530;2023-04-03T06:48:50;4.80;99.90
46336;DHT22;31365;48.858;8.530;2023-04-03T06:51:22;4.70;99.90
46336;DHT22;31365;48.858;8.530;2023-04-03T06:53:55;4.60;99.90
46336;DHT22;31365;48.858;8.530;2023-04-03T06:56:26;4.70;99.90
46336;DHT22;31365;48.858;8.530;2023-04-03T06:58:56;4.60;99.90
46336;DHT22;31365;48.858;8.530;2023-04-03T07:01:29;4.70;99.90
46336;DHT22;31365;48.858;8.530;2023-04-03T07:03:59;4.70;99.90
46336;DHT22;31365;48.858;8.530;2023-04-03T07:06:30;4.70;99.90
46336;DHT22;31365;48.858;8.530;2023-04-03T07:09:03;4.70;99.90
46336;DHT22;31365;48.858;8.530;2023-04-03T07:11:35;4.70;99.90
46336;DHT22;31365;48.858;8.530;2023-04-03T07:14:05;4.70;99.90
46336;DHT22;31365;48.858;8.530;2023-04-03T07:16:36;4.70;99.90
46336;DHT22;31365;48.858;8.530;2023-04-03T07:19:08;4.80;99.90
46336;DHT22;31365;48.858;8.530;2023-04-03T07:21:38;4.80;99.90
46336;DHT22;31365;48.858;8.530;2023-04-03T07:24:08;4.90;99.90
46336;DHT22;31365;48.858;8.530;2023-04-03T07:26:42;5.00;99.90
46336;DHT22;31365;48.858;8.530;2023-04-03T07:29:12;5.10;99.90
46336;DHT22;31365;48.858;8.530;2023-04-03T07:31:43;5.20;99.90
46336;DHT22;31365;48.858;8.530;2023-04-03T07:34:13;5.30;99.90
46336;DHT22;31365;48.858;8.530;2023-04-03T07:36:43;5.50;99.90
46336;DHT22;31365;48.858;8.530;2023-04-03T07:39:12;5.60;99.90
46336;DHT22;31365;48.858;8.530;2023-04-03T07:41:42;5.70;99.90
46336;DHT22;31365;48.858;8.530;2023-04-03T07:44:11;5.70;99.90
46336;DHT22;31365;48.858;8.530;2023-04-03T07:46:39;5.70;99.90
46336;DHT22;31365;48.858;8.530;2023-04-03T07:49:11;5.70;99.90
46336;DHT22;31365;48.858;8.530;2023-04-03T07:51:40;5.80;99.90
46336;DHT22;31365;48.858;8.530;2023-04-03T07:54:09;5.80;99.90
46336;DHT22;31365;48.858;8.530;2023-04-03T07:56:37;5.90;99.90
46336;DHT22;31365;48.858;8.530;2023-04-03T07:59:07;5.90;99.90
46336;DHT22;31365;48.858;8.530;2023-04-03T08:01:36;6.10;99.90
46336;DHT22;31365;48.858;8.530;2023-04-03T08:04:06;6.10;99.90
46336;DHT22;31365;48.858;8.530;2023-04-03T08:06:36;6.00;99.90
46336;DHT22;31365;48.858;8.530;2023-04-03T08:09:13;6.00;99.90
46336;DHT22;31365;48.858;8.530;2023-04-03T08:11:43;6.10;99.90
46336;DHT22;31365;48.858;8.530;2023-04-03T08:14:13;6.00;99.90
46336;DHT22;31365;48.858;8.530;2023-04-03T08:16:46;6.00;99.90
46336;DHT22;31365;48.858;8.530;2023-04-03T08:19:17;5.90;99.90
46336;DHT22;31365;48.858;8.530;2023-04-03T08:21:53;5.90;99.90
46336;DHT22;31365;48.858;8.530;2023-04-03T08:24:23;5.90;99.90
46336;DHT22;31365;48.858;8.530;2023-04-03T08:26:53;5.90;99.90
46336;DHT22;31365;48.858;8.530;2023-04-03T08:29:23;6.00;99.90
46336;DHT22;31365;48.858;8.530;2023-04-03T08:31:53;5.90;99.90
46336;DHT22;31365;48.858;8.530;2023-04-03T08:34:23;5.80;99.90
46336;DHT22;31365;48.858;8.530;2023-04-03T08:36:54;5.70;99.90
46336;DHT22;31365;48.858;8.530;2023-04-03T08:39:23;5.60;99.90
46336;DHT22;31365;48.858;8.530;2023-04-03T08:41:55;5.70;99.90
46336;DHT22;31365;48.858;8.530;2023-04-03T08:44:39;5.80;99.90
46336;DHT22;31365;48.858;8.530;2023-04-03T08:47:22;5.90;99.90
46336;DHT22;31365;48.858;8.530;2023-04-03T08:49:56;5.90;99.90
46336;DHT22;31365;48.858;8.530;2023-04-03T08:52:34;5.90;99.90
46336;DHT22;31365;48.858;8.530;2023-04-03T08:55:12;6.00;99.90
46336;DHT22;31365;48.858;8.530;2023-04-03T08:57:53;6.00;99.90
46336;DHT22;31365;48.858;8.530;2023-04-03T09:00:44;6.00;99.90
46336;DHT22;31365;48.858;8.530;2023-04-03T09:03:17;6.00;99.90
46336;DHT22;31365;48.858;8.530;2023-04-03T09:05:50;6.00;99.90
46336;DHT22;31365;48.858;8.530;2023-04-03T09:08:27;6.00;99.90
46336;DHT22;31365;48.858;8.530;2023-04-03T09:11:06;6.00;99.90
46336;DHT22;31365;48.858;8.530;2023-04-03T09:13:47;6.10;99.90
46336;DHT22;31365;48.858;8.530;2023-04-03T09:16:28;6.30;99.90
46336;DHT22;31365;48.858;8.530;2023-04-03T09:19:15;6.40;99.90
46336;DHT22;31365;48.858;8.530;2023-04-03T09:21:49;6.60;99.90
46336;DHT22;31365;48.858;8.530;2023-04-03T09:24:21;6.80;99.90
46336;DHT22;31365;48.858;8.530;2023-04-03T09:26:56;6.90;99.90
46336;DHT22;31365;48.858;8.530;2023-04-03T09:29:30;7.00;99.90
46336;DHT22;31365;48.858;8.530;2023-04-03T09:32:02;7.00;99.90
46336;DHT22;31365;48.858;8.530;2023-04-03T09:34:44;7.10;99.90
46336;DHT22;31365;48.858;8.530;2023-04-03T09:37:34;7.10;99.90
46336;DHT22;31365;48.858;8.530;2023-04-03T09:40:32;7.20;99.90
46336;DHT22;31365;48.858;8.530;2023-04-03T09:43:25;7.40;99.90
46336;DHT22;31365;48.858;8.530;2023-04-03T09:46:17;7.50;99.90
46336;DHT22;31365;48.858;8.530;2023-04-03T09:48:56;7.40;99.90
46336;DHT22;31365;48.858;8.530;2023-04-03T09:51:36;7.30;99.90
46336;DHT22;31365;48.858;8.530;2023-04-03T09:54:34;7.40;99.90
46336;DHT22;31365;48.858;8.530;2023-04-03T09:57:11;7.50;99.90
46336;DHT22;31365;48.858;8.530;2023-04-03T09:59:45;7.60;99.90
46336;DHT22;31365;48.858;8.530;2023-04-03T10:05:26;8.00;99.90
46336;DHT22;31365;48.858;8.530;2023-04-03T10:08:10;8.20;99.90
46336;DHT22;31365;48.858;8.530;2023-04-03T10:10:48;8.30;99.90
46336;DHT22;31365;48.858;8.530;2023-04-03T10:13:55;8.40;99.90
46336;DHT22;31365;48.858;8.530;2023-04-03T10:16:32;8.30;99.90
46336;DHT22;31365;48.858;8.530;2023-04-03T10:19:27;8.30;99.90
46336;DHT22;31365;48.858;8.530;2023-04-03T10:22:13;8.40;99.90
46336;DHT22;31365;48.858;8.530;2023-04-03T10:24:56;8.50;99.90
46336;DHT22;31365;48.858;8.530;2023-04-03T10:27:38;8.80;99.90
46336;DHT22;31365;48.858;8.530;2023-04-03T10:30:32;8.80;99.90
46336;DHT22;31365;48.858;8.530;2023-04-03T10:33:28;8.80;99.90
46336;DHT22;31365;48.858;8.530;2023-04-03T10:36:16;8.60;99.90
46336;DHT22;31365;48.858;8.530;2023-04-03T10:38:57;8.40;99.90
46336;DHT22;31365;48.858;8.530;2023-04-03T10:41:34;8.50;99.90
46336;DHT22;31365;48.858;8.530;2023-04-03T10:44:23;8.40;99.90
46336;DHT22;31365;48.858;8.530;2023-04-03T10:47:04;8.30;99.90
46336;DHT22;31365;48.858;8.530;2023-04-03T10:49:47;8.30;99.90
46336;DHT22;31365;48.858;8.530;2023-04-03T10:52:31;8.20;99.90
46336;DHT22;31365;48.858;8.530;2023-04-03T10:55:21;8.40;99.90
46336;DHT22;31365;48.858;8.530;2023-04-03T10:57:59;8.40;99.90
46336;DHT22;31365;48.858;8.530;2023-04-03T11:00:37;8.30;99.90
46336;DHT22;31365;48.858;8.530;2023-04-03T11:03:14;8.30;99.90
46336;DHT22;31365;48.858;8.530;2023-04-03T11:05:52;8.10;99.90
46336;DHT22;31365;48.858;8.530;2023-04-03T11:08:27;7.90;99.90
46336;DHT22;31365;48.858;8.530;2023-04-03T11:11:05;8.00;99.90
46336;DHT22;31365;48.858;8.530;2023-04-03T11:13:40;8.20;99.90
46336;DHT22;31365;48.858;8.530;2023-04-03T11:16:17;8.40;99.90
46336;DHT22;31365;48.858;8.530;2023-04-03T11:18:57;8.60;99.90
46336;DHT22;31365;48.858;8.530;2023-04-03T11:21:34;8.70;99.90
46336;DHT22;31365;48.858;8.530;2023-04-03T11:24:16;8.70;99.90
46336;DHT22;31365;48.858;8.530;2023-04-03T11:26:51;8.70;99.90
46336;DHT22;31365;48.858;8.530;2023-04-03T11:29:24;8.60;99.90
46336;DHT22;31365;48.858;8.530;2023-04-03T11:32:25;8.30;99.90
46336;DHT22;31365;48.858;8.530;2023-04-03T11:35:07;8.10;99.90
46336;DHT22;31365;48.858;8.530;2023-04-03T11:37:39;8.00;99.90
46336;DHT22;31365;48.858;8.530;2023-04-03T11:40:22;7.90;99.90
46336;DHT22;31365;48.858;8.530;2023-04-03T11:43:02;7.90;99.90
46336;DHT22;31365;48.858;8.530;2023-04-03T11:45:50;8.00;99.90
46336;DHT22;31365;48.858;8.530;2023-04-03T11:48:52;8.10;99.90
46336;DHT22;31365;48.858;8.530;2023-04-03T11:51:51;8.20;99.90
46336;DHT22;31365;48.858;8.530;2023-04-03T11:54:50;8.20;99.90
46336;DHT22;31365;48.858;8.530;2023-04-03T11:58:02;8.10;99.90
46336;DHT22;31365;48.858;8.530;2023-04-03T12:00:58;7.80;99.90
46336;DHT22;31365;48.858;8.530;2023-04-03T12:03:35;7.60;99.90
46336;DHT22;31365;48.858;8.530;2023-04-03T12:07:14;7.60;99.90
46336;DHT22;31365;48.858;8.530;2023-04-03T12:10:13;7.70;99.90
46336;DHT22;31365;48.858;8.530;2023-04-03T12:12:59;7.90;99.90
46336;DHT22;31365;48.858;8.530;2023-04-03T12:15:53;8.10;99.90
46336;DHT22;31365;48.858;8.530;2023-04-03T12:18:58;8.30;99.90
46336;DHT22;31365;48.858;8.530;2023-04-03T12:22:05;8.40;99.90
46336;DHT22;31365;48.858;8.530;2023-04-03T12:24:42;8.30;99.90
46336;DHT22;31365;48.858;8.530;2023-04-03T12:27:33;8.30;99.90
46336;DHT22;31365;48.858;8.530;2023-04-03T12:30:16;8.20;99.90
46336;DHT22;31365;48.858;8.530;2023-04-03T12:33:20;8.10;99.90
46336;DHT22;31365;48.858;8.530;2023-04-03T12:36:04;8.00;99.90
46336;DHT22;31365;48.858;8.530;2023-04-03T12:38:58;7.90;99.90
46336;DHT22;31365;48.858;8.530;2023-04-03T12:41:49;8.10;99.90
46336;DHT22;31365;48.858;8.530;2023-04-03T12:44:40;8.30;99.90
46336;DHT22;31365;48.858;8.530;2023-04-03T12:47:31;8.40;99.90
46336;DHT22;31365;48.858;8.530;2023-04-03T12:50:16;8.60;99.90
46336;DHT22;31365;48.858;8.530;2023-04-03T12:52:58;8.70;99.90
46336;DHT22;31365;48.858;8.530;2023-04-03T12:55:29;8.80;99.90
46336;DHT22;31365;48.858;8.530;2023-04-03T12:58:21;8.70;99.90
46336;DHT22;31365;48.858;8.530;2023-04-03T13:01:00;8.60;99.90
46336;DHT22;31365;48.858;8.530;2023-04-03T13:03:31;8.50;99.90
46336;DHT22;31365;48.858;8.530;2023-04-03T13:06:01;8.40;99.90
46336;DHT22;31365;48.858;8.530;2023-04-03T13:08:32;8.40;99.90
46336;DHT22;31365;48.858;8.530;2023-04-03T13:11:05;8.50;99.90
46336;DHT22;31365;48.858;8.530;2023-04-03T13:13:54;8.40;99.90
46336;DHT22;31365;48.858;8.530;2023-04-03T13:16:25;8.20;99.90
46336;DHT22;31365;48.858;8.530;2023-04-03T13:18:58;8.20;99.90
46336;DHT22;31365;48.858;8.530;2023-04-03T13:21:29;8.20;99.90
46336;DHT22;31365;48.858;8.530;2023-04-03T13:24:03;8.20;99.90
46336;DHT22;31365;48.858;8.530;2023-04-03T13:26:42;8.20;99.90
46336;DHT22;31365;48.858;8.530;2023-04-03T13:29:22;8.10;99.90
46336;DHT22;31365;48.858;8.530;2023-04-03T13:31:59;8.10;99.90
46336;DHT22;31365;48.858;8.530;2023-04-03T13:34:35;8.30;99.90
46336;DHT22;31365;48.858;8.530;2023-04-03T13:37:23;8.20;99.90
46336;DHT22;31365;48.858;8.530;2023-04-03T13:39:59;8.10;99.90
46336;DHT22;31365;48.858;8.530;2023-04-03T13:42:32;8.10;99.90
46336;DHT22;31365;48.858;8.530;2023-04-03T13:45:18;8.00;99.90
46336;DHT22;31365;48.858;8.530;2023-04-03T13:47:52;7.90;99.90
46336;DHT22;31365;48.858;8.530;2023-04-03T13:50:59;8.00;99.90
46336;DHT22;31365;48.858;8.530;2023-04-03T13:53:33;8.10;99.90
46336;DHT22;31365;48.858;8.530;2023-04-03T13:56:18;8.00;99.90
46336;DHT22;31365;48.858;8.530;2023-04-03T13:58:57;8.10;99.90
46336;DHT22;31365;48.858;8.530;2023-04-03T14:01:40;8.10;99.90
46336;DHT22;31365;48.858;8.530;2023-04-03T14:04:17;8.00;99.90
46336;DHT22;31365;48.858;8.530;2023-04-03T14:06:49;8.00;99.90
46336;DHT22;31365;48.858;8.530;2023-04-03T14:09:19;8.10;99.90
46336;DHT22;31365;48.858;8.530;2023-04-03T14:11:53;8.40;99.90
46336;DHT22;31365;48.858;8.530;2023-04-03T14:14:27;8.80;99.90
46336;DHT22;31365;48.858;8.530;2023-04-03T14:17:15;9.10;99.90
46336;DHT22;31365;48.858;8.530;2023-04-03T14:19:53;9.40;99.90
46336;DHT22;31365;48.858;8.530;2023-04-03T14:22:26;9.60;99.90
46336;DHT22;31365;48.858;8.530;2023-04-03T14:24:58;9.40;99.90
46336;DHT22;31365;48.858;8.530;2023-04-03T14:27:29;9.40;99.90
46336;DHT22;31365;48.858;8.530;2023-04-03T14:30:07;9.20;99.90
46336;DHT22;31365;48.858;8.530;2023-04-03T14:32:42;8.90;99.90
46336;DHT22;31365;48.858;8.530;2023-04-03T14:35:13;8.80;99.90
46336;DHT22;31365;48.858;8.530;2023-04-03T14:37:42;8.60;99.90
46336;DHT22;31365;48.858;8.530;2023-04-03T14:40:14;8.50;99.90
46336;DHT22;31365;48.858;8.530;2023-04-03T14:42:46;8.40;99.90
46336;DHT22;31365;48.858;8.530;2023-04-03T14:45:17;8.40;99.90
46336;DHT22;31365;48.858;8.530;2023-04-03T14:47:50;8.40;99.90
46336;DHT22;31365;48.858;8.530;2023-04-03T14:50:23;8.50;99.90
46336;DHT22;31365;48.858;8.530;2023-04-03T14:52:55;8.70;99.90
46336;DHT22;31365;48.858;8.530;2023-04-03T14:55:26;9.00;99.90
46336;DHT22;31365;48.858;8.530;2023-04-03T14:57:55;9.00;99.90
46336;DHT22;31365;48.858;8.530;2023-04-03T15:00:24;8.90;99.90
46336;DHT22;31365;48.858;8.530;2023-04-03T15:02:55;8.80;99.90
46336;DHT22;31365;48.858;8.530;2023-04-03T15:05:24;8.60;99.90
46336;DHT22;31365;48.858;8.530;2023-04-03T15:07:55;8.50;99.90
46336;DHT22;31365;48.858;8.530;2023-04-03T15:10:29;8.50;99.90
46336;DHT22;31365;48.858;8.530;2023-04-03T15:13:00;8.50;99.90
46336;DHT22;31365;48.858;8.530;2023-04-03T15:15:31;8.50;99.90
46336;DHT22;31365;48.858;8.530;2023-04-03T15:18:03;8.50;99.90
46336;DHT22;31365;48.858;8.530;2023-04-03T15:20:33;8.60;99.90
46336;DHT22;31365;48.858;8.530;2023-04-03T15:23:02;8.60;99.90
46336;DHT22;31365;48.858;8.530;2023-04-03T15:25:33;8.50;99.90
46336;DHT22;31365;48.858;8.530;2023-04-03T15:28:03;8.40;99.90
46336;DHT22;31365;48.858;8.530;2023-04-03T15:30:33;8.40;99.90
46336;DHT22;31365;48.858;8.530;2023-04-03T15:33:08;8.30;99.90
46336;DHT22;31365;48.858;8.530;2023-04-03T15:35:37;8.30;99.90
46336;DHT22;31365;48.858;8.530;2023-04-03T15:38:07;8.30;99.90
46336;DHT22;31365;48.858;8.530;2023-04-03T15:40:37;8.40;99.90
46336;DHT22;31365;48.858;8.530;2023-04-03T15:43:06;8.30;99.90
46336;DHT22;31365;48.858;8.530;2023-04-03T15:45:36;8.30;99.90
46336;DHT22;31365;48.858;8.530;2023-04-03T15:48:06;8.40;99.90
46336;DHT22;31365;48.858;8.530;2023-04-03T15:50:38;8.40;99.90
46336;DHT22;31365;48.858;8.530;2023-04-03T15:53:08;8.50;99.90
46336;DHT22;31365;48.858;8.530;2023-04-03T15:55:38;8.60;99.90
46336;DHT22;31365;48.858;8.530;2023-04-03T15:58:08;8.70;99.90
46336;DHT22;31365;48.858;8.530;2023-04-03T16:00:37;8.80;99.90
46336;DHT22;31365;48.858;8.530;2023-04-03T16:03:11;8.90;99.90
46336;DHT22;31365;48.858;8.530;2023-04-03T16:05:44;8.90;99.90
46336;DHT22;31365;48.858;8.530;2023-04-03T16:08:15;8.80;99.90
46336;DHT22;31365;48.858;8.530;2023-04-03T16:10:44;8.70;99.90
46336;DHT22;31365;48.858;8.530;2023-04-03T16:13:14;8.60;99.90
46336;DHT22;31365;48.858;8.530;2023-04-03T16:15:44;8.40;99.90
46336;DHT22;31365;48.858;8.530;2023-04-03T16:18:15;8.40;99.90
46336;DHT22;31365;48.858;8.530;2023-04-03T16:20:46;8.30;99.90
46336;DHT22;31365;48.858;8.530;2023-04-03T16:23:15;8.20;99.90
46336;DHT22;31365;48.858;8.530;2023-04-03T16:25:44;8.10;99.90
46336;DHT22;31365;48.858;8.530;2023-04-03T16:28:14;8.10;99.90
46336;DHT22;31365;48.858;8.530;2023-04-03T16:30:45;8.10;99.90
46336;DHT22;31365;48.858;8.530;2023-04-03T16:33:18;8.10;99.90
46336;DHT22;31365;48.858;8.530;2023-04-03T16:35:48;8.10;99.90
46336;DHT22;31365;48.858;8.530;2023-04-03T16:38:17;8.00;99.90
46336;DHT22;31365;48.858;8.530;2023-04-03T16:40:49;7.80;99.90
46336;DHT22;31365;48.858;8.530;2023-04-03T16:43:19;7.70;99.90
46336;DHT22;31365;48.858;8.530;2023-04-03T16:45:48;7.60;99.90
46336;DHT22;31365;48.858;8.530;2023-04-03T16:48:18;7.50;99.90
46336;DHT22;31365;48.858;8.530;2023-04-03T16:50:47;7.50;99.90
46336;DHT22;31365;48.858;8.530;2023-04-03T16:53:20;7.40;99.90
46336;DHT22;31365;48.858;8.530;2023-04-03T16:55:48;7.40;99.90
46336;DHT22;31365;48.858;8.530;2023-04-03T16:58:17;7.40;99.90
46336;DHT22;31365;48.858;8.530;2023-04-03T17:00:50;7.40;99.90
46336;DHT22;31365;48.858;8.530;2023-04-03T17:03:22;7.30;99.90
46336;DHT22;31365;48.858;8.530;2023-04-03T17:05:53;7.30;99.90
46336;DHT22;31365;48.858;8.530;2023-04-03T17:08:22;7.30;99.90
46336;DHT22;31365;48.858;8.530;2023-04-03T17:10:52;7.30;99.90
46336;DHT22;31365;48.858;8.530;2023-04-03T17:13:24;7.30;99.90
46336;DHT22;31365;48.858;8.530;2023-04-03T17:16:00;7.20;99.90
46336;DHT22;31365;48.858;8.530;2023-04-03T17:18:35;7.20;99.90
46336;DHT22;31365;48.858;8.530;2023-04-03T17:21:05;7.20;99.90
46336;DHT22;31365;48.858;8.530;2023-04-03T17:23:36;7.20;99.90
46336;DHT22;31365;48.858;8.530;2023-04-03T17:26:11;7.20;99.90
46336;DHT22;31365;48.858;8.530;2023-04-03T17:28:41;7.10;99.90
46336;DHT22;31365;48.858;8.530;2023-04-03T17:31:13;7.10;99.90
46336;DHT22;31365;48.858;8.530;2023-04-03T17:33:45;7.10;99.90
46336;DHT22;31365;48.858;8.530;2023-04-03T17:36:16;7.00;99.90
46336;DHT22;31365;48.858;8.530;2023-04-03T17:38:46;6.90;99.90
46336;DHT22;31365;48.858;8.530;2023-04-03T17:41:18;6.90;99.90
46336;DHT22;31365;48.858;8.530;2023-04-03T17:43:49;6.90;99.90
46336;DHT22;31365;48.858;8.530;2023-04-03T17:46:19;6.80;99.90
46336;DHT22;31365;48.858;8.530;2023-04-03T17:48:51;6.80;99.90
46336;DHT22;31365;48.858;8.530;2023-04-03T17:51:22;6.70;99.90
46336;DHT22;31365;48.858;8.530;2023-04-03T17:53:53;6.60;99.90
46336;DHT22;31365;48.858;8.530;2023-04-03T17:56:24;6.60;99.90
46336;DHT22;31365;48.858;8.530;2023-04-03T17:58:54;6.50;99.90
46336;DHT22;31365;48.858;8.530;2023-04-03T18:01:27;6.50;99.90
46336;DHT22;31365;48.858;8.530;2023-04-03T18:04:02;6.50;99.90
46336;DHT22;31365;48.858;8.530;2023-04-03T18:06:33;6.40;99.90
46336;DHT22;31365;48.858;8.530;2023-04-03T18:09:09;6.40;99.90
46336;DHT22;31365;48.858;8.530;2023-04-03T18:11:42;6.30;99.90
46336;DHT22;31365;48.858;8.530;2023-04-03T18:14:15;6.20;99.90
46336;DHT22;31365;48.858;8.530;2023-04-03T18:16:47;6.10;99.90
46336;DHT22;31365;48.858;8.530;2023-04-03T18:19:18;6.00;99.90
46336;DHT22;31365;48.858;8.530;2023-04-03T18:21:50;5.90;99.90
46336;DHT22;31365;48.858;8.530;2023-04-03T18:24:23;5.90;99.90
46336;DHT22;31365;48.858;8.530;2023-04-03T18:26:57;5.80;99.90
46336;DHT22;31365;48.858;8.530;2023-04-03T18:29:29;5.80;99.90
46336;DHT22;31365;48.858;8.530;2023-04-03T18:32:02;5.80;99.90